createdAt,value
2023-04-18T00:00:43.321Z,101468.00
2023-04-18T00:03:10.459Z,101471.00
2023-04-18T00:05:37.967Z,101466.00
2023-04-18T00:08:05.487Z,101469.00
2023-04-18T00:10:32.833Z,101469.00
2023-04-18T00:13:00.427Z,101470.00
2023-04-18T00:15:29.189Z,101464.00
2023-04-18T00:17:56.841Z,101474.00
2023-04-18T00:20:26.157Z,101469.00
2023-04-18T00:22:53.199Z,101476.00
2023-04-18T00:25:20.200Z,101474.00
2023-04-18T00:27:47.102Z,101472.00
2023-04-18T00:30:14.506Z,101476.00
2023-04-18T00:32:41.529Z,101475.00
2023-04-18T00:35:08.872Z,101472.00
2023-04-18T00:37:35.875Z,101472.00
2023-04-18T00:40:02.980Z,101471.00
2023-04-18T00:42:29.869Z,101474.00
2023-04-18T00:44:56.829Z,101474.00
2023-04-18T00:47:23.814Z,101478.00
2023-04-18T00:49:50.796Z,101474.00
2023-04-18T00:52:19.258Z,101473.00
2023-04-18T00:54:47.610Z,101474.00
2023-04-18T00:57:15.127Z,101468.00
2023-04-18T00:59:42.941Z,101477.00
2023-04-18T01:02:09.931Z,101468.00
2023-04-18T01:04:37.360Z,101468.00
2023-04-18T01:07:05.392Z,101461.00
2023-04-18T01:09:32.462Z,101469.00
2023-04-18T01:11:59.407Z,101474.00
2023-04-18T01:14:26.373Z,101467.00
2023-04-18T01:16:53.284Z,101458.00
2023-04-18T01:19:20.188Z,101467.00
2023-04-18T01:21:47.225Z,101456.00
2023-04-18T01:24:16.912Z,101463.00
2023-04-18T01:26:49.576Z,101457.00
2023-04-18T01:29:16.555Z,101460.00
2023-04-18T01:31:43.468Z,101457.00
2023-04-18T01:34:10.448Z,101465.00
2023-04-18T01:36:38.992Z,101454.00
2023-04-18T01:39:07.096Z,101453.00
2023-04-18T01:41:34.005Z,101466.00
2023-04-18T01:44:01.328Z,101464.00
2023-04-18T01:46:29.001Z,101457.00
2023-04-18T01:48:57.127Z,101463.00
2023-04-18T01:51:24.082Z,101453.00
2023-04-18T01:53:51.182Z,101449.00
2023-04-18T01:56:18.184Z,101457.00
2023-04-18T01:58:45.093Z,101457.00
2023-04-18T02:01:12.116Z,101458.00
2023-04-18T02:03:39.984Z,101463.00
2023-04-18T02:06:07.682Z,101452.00
2023-04-18T02:08:35.941Z,101450.00
2023-04-18T02:11:03.581Z,101447.00
2023-04-18T02:13:31.024Z,101449.00
2023-04-18T02:15:58.016Z,101445.00
2023-04-18T02:18:26.563Z,101456.00
2023-04-18T02:20:53.634Z,101454.00
2023-04-18T02:23:20.610Z,101447.00
2023-04-18T02:25:47.634Z,101452.00
2023-04-18T02:28:14.533Z,101444.00
2023-04-18T02:30:41.417Z,101446.00
2023-04-18T02:33:08.596Z,101439.00
2023-04-18T02:35:37.459Z,101434.00
2023-04-18T02:38:04.522Z,101436.00
2023-04-18T02:40:31.416Z,101444.00
2023-04-18T02:42:58.411Z,101436.00
2023-04-18T02:45:25.342Z,101436.00
2023-04-18T02:47:56.060Z,101439.00
2023-04-18T02:50:27.225Z,101442.00
2023-04-18T02:52:54.083Z,101438.00
2023-04-18T02:55:21.986Z,101446.00
2023-04-18T02:57:49.065Z,101445.00
2023-04-18T03:00:16.129Z,101443.00
2023-04-18T03:02:43.249Z,101434.00
2023-04-18T03:05:10.352Z,101442.00
2023-04-18T03:07:37.286Z,101439.00
2023-04-18T03:10:04.710Z,101439.00
2023-04-18T03:12:31.674Z,101441.00
2023-04-18T03:14:58.667Z,101441.00
2023-04-18T03:17:25.775Z,101443.00
2023-04-18T03:19:52.664Z,101449.00
2023-04-18T03:22:19.675Z,101445.00
2023-04-18T03:24:46.560Z,101444.00
2023-04-18T03:27:13.899Z,101449.00
2023-04-18T03:29:40.848Z,101448.00
2023-04-18T03:32:07.759Z,101450.00
2023-04-18T03:34:34.628Z,101452.00
2023-04-18T03:37:01.497Z,101453.00
2023-04-18T03:39:28.384Z,101452.00
2023-04-18T03:41:55.283Z,101458.00
2023-04-18T03:44:22.148Z,101459.00
2023-04-18T03:46:49.298Z,101456.00
2023-04-18T03:49:16.169Z,101451.00
2023-04-18T03:51:48.980Z,101451.00
2023-04-18T03:54:17.233Z,101453.00
2023-04-18T03:56:45.118Z,101446.00
2023-04-18T03:59:12.535Z,101451.00
2023-04-18T04:01:39.489Z,101451.00
2023-04-18T04:04:06.764Z,101450.00
2023-04-18T04:06:33.846Z,101456.00
2023-04-18T04:09:01.158Z,101459.00
2023-04-18T04:11:28.056Z,101463.00
2023-04-18T04:13:54.993Z,101459.00
2023-04-18T04:16:22.015Z,101458.00
2023-04-18T04:18:48.960Z,101457.00
2023-04-18T04:21:15.910Z,101465.00
2023-04-18T04:23:46.258Z,101464.00
2023-04-18T04:26:15.107Z,101464.00
2023-04-18T04:28:42.891Z,101462.00
2023-04-18T04:31:10.475Z,101471.00
2023-04-18T04:33:38.987Z,101465.00
2023-04-18T04:36:09.690Z,101469.00
2023-04-18T04:38:40.548Z,101470.00
2023-04-18T04:41:07.875Z,101482.00
2023-04-18T04:43:34.880Z,101482.00
2023-04-18T04:46:04.488Z,101485.00
2023-04-18T04:48:31.435Z,101486.00
2023-04-18T04:51:00.163Z,101495.00
2023-04-18T04:53:32.407Z,101473.00
2023-04-18T04:55:59.443Z,101479.00
2023-04-18T04:58:26.740Z,101481.00
2023-04-18T05:00:53.925Z,101484.00
2023-04-18T05:03:21.277Z,101485.00
2023-04-18T05:05:48.803Z,101486.00
2023-04-18T05:08:15.778Z,101486.00
2023-04-18T05:10:43.349Z,101487.00
2023-04-18T05:13:10.389Z,101488.00
2023-04-18T05:15:37.550Z,101490.00
2023-04-18T05:18:04.696Z,101484.00
2023-04-18T05:20:31.802Z,101477.00
2023-04-18T05:22:58.707Z,101492.00
2023-04-18T05:25:25.845Z,101494.00
2023-04-18T05:27:52.772Z,101489.00
2023-04-18T05:30:19.667Z,101496.00
2023-04-18T05:32:46.743Z,101491.00
2023-04-18T05:35:13.826Z,101499.00
2023-04-18T05:37:40.900Z,101499.00
2023-04-18T05:40:09.335Z,101497.00
2023-04-18T05:42:36.341Z,101476.00
2023-04-18T05:45:03.306Z,101500.00
2023-04-18T05:47:30.458Z,101502.00
2023-04-18T05:49:57.377Z,101501.00
2023-04-18T05:52:26.096Z,101506.00
2023-04-18T05:54:53.323Z,101505.00
2023-04-18T05:57:20.384Z,101498.00
2023-04-18T05:59:47.280Z,101500.00
2023-04-18T06:02:15.540Z,101505.00
2023-04-18T06:04:43.166Z,101512.00
2023-04-18T06:07:10.484Z,101509.00
2023-04-18T06:09:37.517Z,101504.00
2023-04-18T06:12:04.754Z,101515.00
2023-04-18T06:14:32.015Z,101516.00
2023-04-18T06:16:58.995Z,101512.00
2023-04-18T06:19:26.105Z,101509.00
2023-04-18T06:21:53.917Z,101517.00
2023-04-18T06:24:21.153Z,101513.00
2023-04-18T06:26:48.086Z,101510.00
2023-04-18T06:29:14.960Z,101526.00
2023-04-18T06:31:42.270Z,101515.00
2023-04-18T06:34:09.460Z,101516.00
2023-04-18T06:36:36.380Z,101522.00
2023-04-18T06:39:03.850Z,101508.00
2023-04-18T06:41:31.568Z,101524.00
2023-04-18T06:46:28.378Z,101520.00
2023-04-18T06:48:55.319Z,101530.00
2023-04-18T06:51:22.239Z,101536.00
2023-04-18T06:53:52.537Z,101531.00
2023-04-18T06:56:23.061Z,101517.00
2023-04-18T06:58:50.000Z,101536.00
2023-04-18T07:01:17.071Z,101531.00
2023-04-18T07:03:44.351Z,101535.00
2023-04-18T07:06:11.617Z,101536.00
2023-04-18T07:08:38.686Z,101547.00
2023-04-18T07:11:06.667Z,101536.00
2023-04-18T07:13:33.626Z,101543.00
2023-04-18T07:16:01.477Z,101553.00
2023-04-18T07:18:37.326Z,101548.00
2023-04-18T07:21:09.093Z,101551.00
2023-04-18T07:23:36.603Z,101556.00
2023-04-18T07:26:05.729Z,101555.00
2023-04-18T07:28:33.340Z,101556.00
2023-04-18T07:31:01.317Z,101568.00
2023-04-18T07:33:31.699Z,101552.00
2023-04-18T07:35:58.827Z,101569.00
2023-04-18T07:38:26.886Z,101568.00
2023-04-18T07:40:58.950Z,101573.00
2023-04-18T07:43:26.292Z,101559.00
2023-04-18T07:45:54.265Z,101556.00
2023-04-18T07:48:25.405Z,101566.00
2023-04-18T07:50:53.188Z,101559.00
2023-04-18T07:53:20.266Z,101573.00
2023-04-18T07:55:47.367Z,101578.00
2023-04-18T07:58:14.610Z,101573.00
2023-04-18T08:00:43.851Z,101580.00
2023-04-18T08:03:12.332Z,101576.00
2023-04-18T08:05:41.837Z,101590.00
2023-04-18T08:08:11.733Z,101579.00
2023-04-18T08:10:38.943Z,101577.00
2023-04-18T08:13:06.944Z,101586.00
2023-04-18T08:15:34.074Z,101581.00
2023-04-18T08:18:01.947Z,101588.00
2023-04-18T08:20:29.117Z,101569.00
2023-04-18T08:25:27.097Z,101592.00
2023-04-18T08:27:54.040Z,101590.00
2023-04-18T08:30:21.340Z,101592.00
2023-04-18T08:32:49.352Z,101591.00
2023-04-18T08:35:16.579Z,101591.00
2023-04-18T08:37:43.659Z,101588.00
2023-04-18T08:40:10.971Z,101591.00
2023-04-18T08:42:38.741Z,101597.00
2023-04-18T08:45:07.049Z,101586.00
2023-04-18T08:47:35.771Z,101600.00
2023-04-18T08:50:02.685Z,101590.00
2023-04-18T08:52:31.123Z,101589.00
2023-04-18T08:54:58.046Z,101596.00
2023-04-18T08:57:26.999Z,101606.00
2023-04-18T08:59:54.411Z,101609.00
2023-04-18T09:02:28.507Z,101612.00
2023-04-18T09:04:55.851Z,101605.00
2023-04-18T09:07:31.508Z,101604.00
2023-04-18T09:09:58.427Z,101613.00
2023-04-18T09:12:27.887Z,101603.00
2023-04-18T09:15:09.410Z,101598.00
2023-04-18T09:17:43.669Z,101600.00
2023-04-18T09:20:12.497Z,101581.00
2023-04-18T09:22:51.843Z,101588.00
2023-04-18T09:25:29.662Z,101603.00
2023-04-18T09:28:00.828Z,101600.00
2023-04-18T09:30:34.491Z,101578.00
2023-04-18T09:33:06.591Z,101584.00
2023-04-18T09:35:34.635Z,101579.00
2023-04-18T09:38:01.880Z,101579.00
2023-04-18T09:40:29.219Z,101586.00
2023-04-18T09:42:56.483Z,101576.00
2023-04-18T09:45:25.050Z,101594.00
2023-04-18T09:47:53.735Z,101594.00
2023-04-18T09:50:20.828Z,101596.00
2023-04-18T09:52:48.707Z,101596.00
2023-04-18T09:55:18.971Z,101595.00
2023-04-18T09:57:48.684Z,101563.00
2023-04-18T10:00:25.538Z,101606.00
2023-04-18T10:03:00.530Z,101586.00
2023-04-18T10:05:33.679Z,101590.00
2023-04-18T10:08:01.089Z,101574.00
2023-04-18T10:10:28.607Z,101560.00
2023-04-18T10:12:58.440Z,101566.00
2023-04-18T10:15:28.389Z,101586.00
2023-04-18T10:18:09.134Z,101580.00
2023-04-18T10:20:36.401Z,101573.00
2023-04-18T10:23:40.863Z,101585.00
2023-04-18T10:26:11.627Z,101584.00
2023-04-18T10:28:57.246Z,101564.00
2023-04-18T10:31:27.099Z,101575.00
2023-04-18T10:34:04.515Z,101559.00
2023-04-18T10:37:06.033Z,101561.00
2023-04-18T10:39:58.545Z,101568.00
2023-04-18T10:42:47.055Z,101575.00
2023-04-18T10:45:22.896Z,101558.00
2023-04-18T10:47:50.635Z,101557.00
2023-04-18T10:50:17.794Z,101566.00
2023-04-18T10:52:44.859Z,101548.00
2023-04-18T10:55:28.821Z,101554.00
2023-04-18T10:57:58.582Z,101556.00
2023-04-18T11:00:26.407Z,101544.00
2023-04-18T11:02:57.667Z,101545.00
2023-04-18T11:05:28.537Z,101545.00
2023-04-18T11:07:55.774Z,101545.00
2023-04-18T11:10:26.663Z,101547.00
2023-04-18T11:12:56.513Z,101543.00
2023-04-18T11:15:25.537Z,101548.00
2023-04-18T11:18:04.319Z,101550.00
2023-04-18T11:20:40.915Z,101549.00
2023-04-18T11:23:21.552Z,101558.00
2023-04-18T11:25:54.454Z,101539.00
2023-04-18T11:28:24.757Z,101545.00
2023-04-18T11:30:51.725Z,101531.00
2023-04-18T11:33:18.751Z,101537.00
2023-04-18T11:35:46.869Z,101534.00
2023-04-18T11:38:16.061Z,101530.00
2023-04-18T11:40:50.681Z,101537.00
2023-04-18T11:43:25.348Z,101544.00
2023-04-18T11:45:58.079Z,101535.00
2023-04-18T11:48:38.091Z,101524.00
2023-04-18T11:51:07.481Z,101539.00
2023-04-18T11:53:38.947Z,101536.00
2023-04-18T11:56:06.664Z,101521.00
2023-04-18T11:58:35.487Z,101544.00
2023-04-18T12:01:24.692Z,101540.00
2023-04-18T12:04:08.652Z,101526.00
2023-04-18T12:06:50.387Z,101530.00
2023-04-18T12:09:18.974Z,101505.00
2023-04-18T12:12:01.612Z,101542.00
2023-04-18T12:14:29.548Z,101503.00
2023-04-18T12:16:56.535Z,101527.00
2023-04-18T12:19:28.204Z,101535.00
2023-04-18T12:22:09.942Z,101533.00
2023-04-18T12:24:37.943Z,101525.00
2023-04-18T12:27:05.146Z,101519.00
2023-04-18T12:29:32.052Z,101521.00
2023-04-18T12:31:58.961Z,101516.00
2023-04-18T12:34:25.989Z,101522.00
2023-04-18T12:36:53.742Z,101512.00
2023-04-18T12:39:20.600Z,101523.00
2023-04-18T12:41:49.614Z,101511.00
2023-04-18T12:44:16.826Z,101518.00
2023-04-18T12:46:43.809Z,101521.00
2023-04-18T12:49:10.803Z,101514.00
2023-04-18T12:51:37.692Z,101509.00
2023-04-18T12:54:04.758Z,101514.00
2023-04-18T12:56:31.784Z,101519.00
2023-04-18T12:58:58.632Z,101512.00
2023-04-18T13:01:25.741Z,101508.00
2023-04-18T13:04:04.062Z,101507.00
2023-04-18T13:06:38.429Z,101506.00
2023-04-18T13:09:05.445Z,101498.00
2023-04-18T13:11:32.295Z,101495.00
2023-04-18T13:13:59.791Z,101496.00
2023-04-18T13:16:26.737Z,101505.00
2023-04-18T13:18:53.681Z,101497.00
2023-04-18T13:21:20.594Z,101491.00
2023-04-18T13:23:47.543Z,101497.00
2023-04-18T13:26:14.424Z,101492.00
2023-04-18T13:28:41.279Z,101498.00
2023-04-18T13:31:08.154Z,101494.00
2023-04-18T13:33:36.250Z,101491.00
2023-04-18T13:36:03.628Z,101485.00
2023-04-18T13:38:30.986Z,101485.00
2023-04-18T13:41:10.971Z,101490.00
2023-04-18T13:43:39.428Z,101484.00
2023-04-18T13:46:06.532Z,101474.00
2023-04-18T13:48:34.955Z,101499.00
2023-04-18T13:51:03.144Z,101494.00
2023-04-18T13:53:31.129Z,101492.00
2023-04-18T13:55:59.078Z,101488.00
2023-04-18T13:58:25.984Z,101492.00
2023-04-18T14:00:53.832Z,101499.00
2023-04-18T14:03:21.107Z,101491.00
2023-04-18T14:05:49.306Z,101499.00
2023-04-18T14:08:16.165Z,101501.00
2023-04-18T14:10:43.076Z,101492.00
2023-04-18T14:13:09.946Z,101496.00
2023-04-18T14:15:40.977Z,101484.00
2023-04-18T14:18:07.951Z,101497.00
2023-04-18T14:20:35.965Z,101498.00
2023-04-18T14:23:02.878Z,101497.00
2023-04-18T14:25:30.288Z,101500.00
2023-04-18T14:28:09.798Z,101493.00
2023-04-18T14:30:38.865Z,101502.00
2023-04-18T14:33:07.210Z,101502.00
2023-04-18T14:35:34.204Z,101488.00
2023-04-18T14:38:01.074Z,101511.00
2023-04-18T14:40:28.140Z,101496.00
2023-04-18T14:42:55.076Z,101505.00
2023-04-18T14:45:22.519Z,101498.00
2023-04-18T14:47:49.507Z,101502.00
2023-04-18T14:50:16.485Z,101499.00
2023-04-18T14:52:44.291Z,101503.00
2023-04-18T14:55:11.273Z,101510.00
2023-04-18T14:57:39.645Z,101499.00
2023-04-18T15:00:10.738Z,101505.00
2023-04-18T15:02:41.138Z,101499.00
2023-04-18T15:05:12.608Z,101494.00
2023-04-18T15:07:40.749Z,101504.00
2023-04-18T15:10:08.625Z,101491.00
2023-04-18T15:12:35.766Z,101490.00
2023-04-18T15:15:02.768Z,101496.00
2023-04-18T15:17:29.746Z,101491.00
2023-04-18T15:19:59.329Z,101488.00
2023-04-18T15:22:26.243Z,101487.00
2023-04-18T15:24:53.112Z,101486.00
2023-04-18T15:27:19.963Z,101484.00
2023-04-18T15:29:47.044Z,101479.00
2023-04-18T15:32:14.436Z,101482.00
2023-04-18T15:34:41.501Z,101493.00
2023-04-18T15:37:08.493Z,101457.00
2023-04-18T15:39:36.113Z,101490.00
2023-04-18T15:42:03.334Z,101496.00
2023-04-18T15:44:30.785Z,101482.00
2023-04-18T15:47:00.515Z,101493.00
2023-04-18T15:49:27.782Z,101488.00
2023-04-18T15:51:54.748Z,101428.00
2023-04-18T15:54:21.786Z,101492.00
2023-04-18T15:56:48.733Z,101404.00
2023-04-18T15:59:15.689Z,101488.00
2023-04-18T16:01:45.238Z,101483.00
2023-04-18T16:04:13.352Z,101479.00
2023-04-18T16:06:40.714Z,101486.00
2023-04-18T16:09:07.785Z,101493.00
2023-04-18T16:11:34.676Z,101482.00
2023-04-18T16:14:01.624Z,101489.00
2023-04-18T16:16:28.586Z,101488.00
2023-04-18T16:18:55.578Z,101487.00
2023-04-18T16:21:22.430Z,101482.00
2023-04-18T16:23:49.456Z,101490.00
2023-04-18T16:26:16.412Z,101487.00
2023-04-18T16:28:43.408Z,101484.00
2023-04-18T16:31:10.449Z,101491.00
2023-04-18T16:33:37.513Z,101485.00
2023-04-18T16:36:05.511Z,101482.00
2023-04-18T16:38:32.617Z,101482.00
2023-04-18T16:41:01.497Z,101477.00
2023-04-18T16:43:30.367Z,101485.00
2023-04-18T16:45:58.009Z,101484.00
2023-04-18T16:48:25.008Z,101481.00
2023-04-18T16:50:51.963Z,101487.00
2023-04-18T16:53:18.884Z,101483.00
2023-04-18T16:55:46.015Z,101481.00
2023-04-18T16:58:12.959Z,101468.00
2023-04-18T17:00:40.067Z,101472.00
2023-04-18T17:03:07.863Z,101464.00
2023-04-18T17:05:34.841Z,101464.00
2023-04-18T17:08:03.560Z,101461.00
2023-04-18T17:10:30.751Z,101468.00
2023-04-18T17:12:58.893Z,101467.00
2023-04-18T17:15:27.339Z,101463.00
2023-04-18T17:17:56.352Z,101459.00
2023-04-18T17:20:23.831Z,101453.00
2023-04-18T17:22:51.128Z,101454.00
2023-04-18T17:25:18.226Z,101452.00
2023-04-18T17:27:45.247Z,101454.00
2023-04-18T17:30:12.605Z,101455.00
2023-04-18T17:32:45.625Z,101494.00
2023-04-18T17:35:14.782Z,101461.00
2023-04-18T17:37:42.955Z,101462.00
2023-04-18T17:40:13.264Z,101459.00
2023-04-18T17:42:40.375Z,101457.00
2023-04-18T17:45:10.762Z,101464.00
2023-04-18T17:47:37.866Z,101460.00
2023-04-18T17:50:06.899Z,101462.00
2023-04-18T17:52:33.885Z,101465.00
2023-04-18T17:55:04.198Z,101455.00
2023-04-18T17:57:33.517Z,101467.00
2023-04-18T18:00:00.615Z,101467.00
2023-04-18T18:02:28.463Z,101471.00
2023-04-18T18:04:56.357Z,101475.00
2023-04-18T18:07:23.298Z,101483.00
2023-04-18T18:09:50.169Z,101476.00
2023-04-18T18:12:17.243Z,101480.00
2023-04-18T18:14:44.131Z,101479.00
2023-04-18T18:17:11.577Z,101489.00
2023-04-18T18:19:38.597Z,101481.00
2023-04-18T18:22:05.680Z,101496.00
2023-04-18T18:24:32.605Z,101486.00
2023-04-18T18:26:59.715Z,101490.00
2023-04-18T18:29:26.695Z,101494.00
2023-04-18T18:31:53.597Z,101484.00
2023-04-18T18:34:21.563Z,101491.00
2023-04-18T18:36:48.630Z,101481.00
2023-04-18T18:39:16.615Z,101480.00
2023-04-18T18:41:43.734Z,101488.00
2023-04-18T18:44:14.267Z,101486.00
2023-04-18T18:46:42.717Z,101474.00
2023-04-18T18:49:10.229Z,101479.00
2023-04-18T18:51:37.403Z,101485.00
2023-04-18T18:54:04.586Z,101480.00
2023-04-18T18:56:31.460Z,101471.00
2023-04-18T18:58:58.485Z,101487.00
2023-04-18T19:01:25.433Z,101472.00
2023-04-18T19:03:52.611Z,101472.00
2023-04-18T19:06:19.614Z,101470.00
2023-04-18T19:08:46.525Z,101471.00
2023-04-18T19:11:13.453Z,101458.00
2023-04-18T19:13:40.406Z,101460.00
2023-04-18T19:16:07.358Z,101457.00
2023-04-18T19:18:34.449Z,101449.00
2023-04-18T19:21:02.263Z,101458.00
2023-04-18T19:23:30.971Z,101457.00
2023-04-18T19:25:58.290Z,101454.00
2023-04-18T19:28:25.870Z,101453.00
2023-04-18T19:30:53.117Z,101455.00
2023-04-18T19:33:21.218Z,101465.00
2023-04-18T19:35:48.164Z,101457.00
2023-04-18T19:38:15.369Z,101458.00
2023-04-18T19:40:42.758Z,101447.00
2023-04-18T19:43:09.842Z,101425.00
2023-04-18T19:45:36.870Z,101443.00
2023-04-18T19:48:04.168Z,101438.00
2023-04-18T19:50:31.286Z,101442.00
2023-04-18T19:52:58.180Z,101431.00
2023-04-18T19:55:25.338Z,101434.00
2023-04-18T19:57:58.876Z,101443.00
2023-04-18T20:00:26.061Z,101419.00
2023-04-18T20:02:53.532Z,101431.00
2023-04-18T20:05:20.912Z,101432.00
2023-04-18T20:07:48.102Z,101425.00
2023-04-18T20:10:14.979Z,101423.00
2023-04-18T20:12:41.847Z,101411.00
2023-04-18T20:15:09.476Z,101407.00
2023-04-18T20:17:36.491Z,101416.00
2023-04-18T20:20:04.538Z,101404.00
2023-04-18T20:22:32.529Z,101407.00
2023-04-18T20:24:59.781Z,101407.00
2023-04-18T20:27:27.134Z,101402.00
2023-04-18T20:29:56.060Z,101381.00
2023-04-18T20:32:24.165Z,101391.00
2023-04-18T20:34:51.413Z,101397.00
2023-04-18T20:37:18.755Z,101391.00
2023-04-18T20:39:47.688Z,101379.00
2023-04-18T20:42:14.735Z,101380.00
2023-04-18T20:44:46.959Z,101381.00
2023-04-18T20:47:15.713Z,101379.00
2023-04-18T20:49:43.156Z,101381.00
2023-04-18T20:52:10.319Z,101365.00
2023-04-18T20:54:37.464Z,101368.00
2023-04-18T20:57:04.548Z,101359.00
2023-04-18T20:59:31.449Z,101355.00
2023-04-18T21:01:59.616Z,101346.00
2023-04-18T21:04:27.678Z,101342.00
2023-04-18T21:06:54.734Z,101324.00
2023-04-18T21:09:21.683Z,101319.00
2023-04-18T21:11:48.650Z,101325.00
2023-04-18T21:14:17.217Z,101315.00
2023-04-18T21:16:44.342Z,101313.00
2023-04-18T21:19:11.580Z,101318.00
2023-04-18T21:21:38.525Z,101308.00
2023-04-18T21:24:05.851Z,101299.00
2023-04-18T21:26:32.753Z,101303.00
2023-04-18T21:29:02.574Z,101291.00
2023-04-18T21:31:32.916Z,101288.00
2023-04-18T21:34:03.089Z,101289.00
2023-04-18T21:36:31.781Z,101285.00
2023-04-18T21:39:01.015Z,101281.00
2023-04-18T21:41:28.412Z,101281.00
2023-04-18T21:43:55.516Z,101279.00
2023-04-18T21:46:22.593Z,101282.00
2023-04-18T21:48:49.624Z,101272.00
2023-04-18T21:51:17.568Z,101273.00
2023-04-18T21:53:44.866Z,101259.00
2023-04-18T21:56:11.914Z,101255.00
2023-04-18T21:58:38.846Z,101253.00
2023-04-18T22:01:05.964Z,101251.00
2023-04-18T22:03:34.350Z,101242.00
2023-04-18T22:06:01.986Z,101247.00
2023-04-18T22:08:29.523Z,101246.00
2023-04-18T22:10:59.007Z,101243.00
2023-04-18T22:13:33.037Z,101253.00
2023-04-18T22:16:04.259Z,101249.00
2023-04-18T22:18:37.644Z,101211.00
2023-04-18T22:21:05.073Z,101229.00
2023-04-18T22:23:32.094Z,101215.00
2023-04-18T22:25:59.368Z,101223.00
2023-04-18T22:28:29.857Z,101213.00
2023-04-18T22:30:56.824Z,101217.00
2023-04-18T22:33:24.420Z,101207.00
2023-04-18T22:35:51.371Z,101205.00
2023-04-18T22:38:18.309Z,101210.00
2023-04-18T22:40:45.291Z,101215.00
2023-04-18T22:43:12.226Z,101201.00
2023-04-18T22:45:39.160Z,101198.00
2023-04-18T22:48:11.240Z,101188.00
2023-04-18T22:50:42.514Z,101190.00
2023-04-18T22:53:14.091Z,101177.00
2023-04-18T22:55:42.699Z,101180.00
2023-04-18T22:58:11.157Z,101164.00
2023-04-18T23:00:38.479Z,101134.00
2023-04-18T23:03:05.860Z,101148.00
2023-04-18T23:05:34.247Z,101156.00
2023-04-18T23:08:01.612Z,101155.00
2023-04-18T23:10:28.599Z,101161.00
2023-04-18T23:12:55.568Z,101154.00
2023-04-18T23:15:22.949Z,101153.00
2023-04-18T23:17:54.948Z,101154.00
2023-04-18T23:20:23.910Z,101143.00
2023-04-18T23:22:51.726Z,101135.00
2023-04-18T23:25:19.797Z,101134.00
2023-04-18T23:27:47.009Z,101120.00
2023-04-18T23:30:14.176Z,101130.00
2023-04-18T23:32:41.146Z,101117.00
2023-04-18T23:35:08.584Z,101122.00
2023-04-18T23:37:35.499Z,101121.00
2023-04-18T23:40:05.849Z,101102.00
2023-04-18T23:42:35.756Z,101102.00
2023-04-18T23:45:04.080Z,101073.00
2023-04-18T23:47:31.011Z,101096.00
2023-04-18T23:49:58.028Z,101102.00
2023-04-18T23:52:24.973Z,101093.00
2023-04-18T23:54:51.884Z,101090.00
2023-04-18T23:57:18.853Z,101079.00
2023-04-18T23:59:45.823Z,101068.00
